Time;durP1;ratioP1;P1;durP2;ratioP2;P2;SDS_P1;SDS_P2;PMS_P1;PMS_P2;Temp;Humidity;BMP_temperature;BMP_pressure;BME280_temperature;BME280_humidity;BME280_pressure;Samples;Min_cycle;Max_cycle;Signal;HPM_P1;HPM_P2
2023/09/19 00:01:12;;;;;;;58.25;33.53;;;;;;;;;;4941353;28;20070;-53
2023/09/19 00:04:09;;;;;;;58.88;33.40;;;;;;;;;;4985470;28;20057;-60
2023/09/19 00:06:53;;;;;;;51.20;31.25;;;;;;;;;;5000333;28;20662;-51
2023/09/19 00:09:47;;;;;;;58.35;32.70;;;;;;;;;;5003557;28;20080;-49
2023/09/19 00:12:34;;;;;;;59.83;32.17;;;;;;;;;;5001956;28;20510;-50
2023/09/19 00:15:28;;;;;;;49.00;30.05;;;;;;;;;;5003278;28;20050;-50
2023/09/19 00:18:24;;;;;;;44.63;28.75;;;;;;;;;;4997360;28;20546;-51
2023/09/19 00:21:17;;;;;;;51.35;29.60;;;;;;;;;;4982901;28;20047;-50
2023/09/19 00:24:06;;;;;;;59.03;30.65;;;;;;;;;;4985866;28;20125;-47
2023/09/19 00:26:59;;;;;;;61.30;31.83;;;;;;;;;;4981141;28;20322;-63
2023/09/19 00:29:47;;;;;;;44.15;27.40;;;;;;;;;;4979481;28;20062;-62
2023/09/19 00:32:41;;;;;;;43.17;27.13;;;;;;;;;;4978423;28;20576;-62
2023/09/19 00:35:28;;;;;;;39.70;26.88;;;;;;;;;;4979818;28;20674;-62
2023/09/19 00:38:26;;;;;;;41.33;28.38;;;;;;;;;;4977885;28;20117;-62
2023/09/19 00:41:10;;;;;;;51.53;29.80;;;;;;;;;;4980260;28;20526;-58
2023/09/19 00:44:04;;;;;;;45.08;29.08;;;;;;;;;;4986410;28;20465;-63
2023/09/19 00:46:51;;;;;;;42.95;26.65;;;;;;;;;;4987014;28;20074;-62
2023/09/19 00:49:52;;;;;;;44.22;26.05;;;;;;;;;;4971192;28;20141;-61
2023/09/19 00:52:33;;;;;;;41.73;24.73;;;;;;;;;;4970313;28;20069;-62
2023/09/19 00:55:29;;;;;;;37.05;24.67;;;;;;;;;;4986455;28;20057;-62
2023/09/19 00:58:17;;;;;;;36.60;24.05;;;;;;;;;;4974450;28;20386;-62
2023/09/19 01:01:11;;;;;;;36.05;23.98;;;;;;;;;;4982814;28;20046;-52
2023/09/19 01:03:59;;;;;;;30.27;22.98;;;;;;;;;;4985160;28;20156;-64
2023/09/19 01:06:33;;;;;;;39.30;24.35;;;;;;;;;;4980347;28;20063;-64
2023/09/19 01:09:21;;;;;;;30.55;21.38;;;;;;;;;;4971096;28;20527;-64
2023/09/19 01:12:17;;;;;;;31.77;22.58;;;;;;;;;;4988033;28;20491;-64
2023/09/19 01:15:07;;;;;;;37.40;24.45;;;;;;;;;;4976454;28;20582;-64
2023/09/19 01:18:07;;;;;;;38.03;22.85;;;;;;;;;;4985917;28;20081;-62
2023/09/19 01:21:09;;;;;;;42.90;23.58;;;;;;;;;;5002015;28;20120;-46
2023/09/19 01:24:08;;;;;;;38.00;25.00;;;;;;;;;;5002278;28;20053;-53
2023/09/19 01:26:35;;;;;;;36.22;23.70;;;;;;;;;;5003586;28;20065;-52
2023/09/19 01:29:09;;;;;;;37.33;26.20;;;;;;;;;;5000359;28;20112;-49
2023/09/19 01:31:38;;;;;;;51.33;29.30;;;;;;;;;;5000367;28;20057;-52
2023/09/19 01:34:07;;;;;;;45.53;27.13;;;;;;;;;;5004489;28;20169;-49
2023/09/19 01:36:59;;;;;;;42.05;25.65;;;;;;;;;;4994952;28;20050;-53
2023/09/19 01:40:11;;;;;;;41.80;26.95;;;;;;;;;;4999562;28;20050;-50
2023/09/19 01:42:56;;;;;;;36.00;25.70;;;;;;;;;;5004169;28;20053;-53
2023/09/19 01:46:09;;;;;;;37.75;27.55;;;;;;;;;;4997386;28;20050;-52
2023/09/19 01:49:20;;;;;;;55.25;26.83;;;;;;;;;;5000882;28;20062;-52
2023/09/19 01:52:16;;;;;;;35.53;22.98;;;;;;;;;;5001277;28;20042;-52
2023/09/19 01:55:07;;;;;;;34.63;22.55;;;;;;;;;;5002248;28;20050;-58
2023/09/19 01:58:06;;;;;;;31.25;21.90;;;;;;;;;;5001428;28;20395;-60
2023/09/19 02:01:01;;;;;;;30.08;21.13;;;;;;;;;;4995680;28;20112;-59
2023/09/19 02:03:49;;;;;;;28.98;19.52;;;;;;;;;;5006935;28;20442;-59
2023/09/19 02:06:47;;;;;;;28.00;19.38;;;;;;;;;;4998407;28;20136;-59
2023/09/19 02:09:38;;;;;;;27.23;19.98;;;;;;;;;;5001828;28;20659;-59
2023/09/19 02:12:24;;;;;;;32.72;20.13;;;;;;;;;;5002395;28;20741;-59
2023/09/19 02:15:18;;;;;;;27.13;18.40;;;;;;;;;;5005914;28;20060;-49
2023/09/19 02:18:11;;;;;;;23.70;18.30;;;;;;;;;;5007707;28;20054;-51
2023/09/19 02:21:12;;;;;;;25.50;18.27;;;;;;;;;;5004957;28;20054;-53
2023/09/19 02:23:56;;;;;;;22.52;17.77;;;;;;;;;;5008100;28;20061;-55
2023/09/19 02:26:49;;;;;;;30.10;18.67;;;;;;;;;;5009471;28;20049;-49
2023/09/19 02:29:37;;;;;;;30.95;17.63;;;;;;;;;;5005329;28;20061;-50
2023/09/19 02:32:31;;;;;;;25.70;17.60;;;;;;;;;;5001980;28;20054;-61
2023/09/19 02:35:25;;;;;;;29.38;16.45;;;;;;;;;;5002896;28;20722;-67
2023/09/19 02:38:12;;;;;;;26.10;16.98;;;;;;;;;;5003974;28;20133;-66
2023/09/19 02:41:06;;;;;;;20.25;15.77;;;;;;;;;;5004983;28;20486;-66
2023/09/19 02:43:53;;;;;;;19.40;14.82;;;;;;;;;;5007412;28;20049;-66
2023/09/19 02:46:47;;;;;;;20.63;14.77;;;;;;;;;;5000952;28;20054;-66
2023/09/19 02:49:34;;;;;;;21.08;15.20;;;;;;;;;;5006076;28;20061;-62
2023/09/19 02:52:29;;;;;;;22.65;16.10;;;;;;;;;;5004528;28;20050;-61
2023/09/19 02:55:23;;;;;;;23.10;15.65;;;;;;;;;;5001128;28;20065;-61
2023/09/19 02:58:18;;;;;;;19.83;15.45;;;;;;;;;;4994019;28;20061;-61
2023/09/19 03:01:18;;;;;;;18.25;15.38;;;;;;;;;;4981017;28;20068;-62
2023/09/19 03:04:12;;;;;;;25.25;15.82;;;;;;;;;;5005573;28;20093;-61
2023/09/19 03:07:00;;;;;;;23.55;15.13;;;;;;;;;;5007932;28;20066;-62
2023/09/19 03:09:52;;;;;;;20.13;14.60;;;;;;;;;;5004925;28;20054;-59
2023/09/19 03:12:40;;;;;;;21.52;15.00;;;;;;;;;;5004840;28;20073;-66
2023/09/19 03:15:34;;;;;;;16.67;13.68;;;;;;;;;;5006541;28;20049;-66
2023/09/19 03:18:26;;;;;;;20.20;14.98;;;;;;;;;;5003370;28;20060;-67
2023/09/19 03:21:29;;;;;;;18.98;15.35;;;;;;;;;;5002348;28;20148;-66
2023/09/19 03:24:13;;;;;;;25.02;18.27;;;;;;;;;;5002115;28;20604;-67
2023/09/19 03:27:10;;;;;;;25.20;18.30;;;;;;;;;;4990112;28;20062;-61
2023/09/19 03:30:08;;;;;;;21.25;16.73;;;;;;;;;;4992998;28;20061;-61
2023/09/19 03:32:51;;;;;;;27.65;18.27;;;;;;;;;;5005847;28;20057;-61
2023/09/19 03:35:52;;;;;;;36.80;22.60;;;;;;;;;;5005086;28;20060;-62
2023/09/19 03:38:39;;;;;;;31.08;19.83;;;;;;;;;;5005713;28;20057;-65
2023/09/19 03:41:36;;;;;;;33.60;20.42;;;;;;;;;;5002491;28;20058;-52
2023/09/19 03:44:22;;;;;;;33.45;20.92;;;;;;;;;;5005213;28;20054;-52
2023/09/19 03:47:15;;;;;;;27.92;17.45;;;;;;;;;;5003173;28;20061;-50
2023/09/19 03:50:03;;;;;;;22.20;15.68;;;;;;;;;;5004103;28;20072;-50
2023/09/19 03:52:59;;;;;;;24.42;16.83;;;;;;;;;;5003402;28;20512;-50
2023/09/19 03:55:27;;;;;;;26.25;16.55;;;;;;;;;;4985408;28;20186;-61
2023/09/19 03:58:01;;;;;;;22.40;13.27;;;;;;;;;;4997555;28;20494;-62
2023/09/19 04:00:29;;;;;;;29.52;12.88;;;;;;;;;;4976202;28;20086;-61
2023/09/19 04:02:56;;;;;;;19.83;12.55;;;;;;;;;;4952543;28;20626;-61
2023/09/19 04:05:31;;;;;;;21.42;12.75;;;;;;;;;;4992425;28;20058;-60
2023/09/19 04:08:18;;;;;;;24.35;13.15;;;;;;;;;;5001221;28;20053;-60
2023/09/19 04:10:52;;;;;;;19.95;12.13;;;;;;;;;;4987854;28;20065;-61
2023/09/19 04:13:39;;;;;;;21.45;11.85;;;;;;;;;;4992924;28;20823;-65
2023/09/19 04:16:33;;;;;;;29.50;12.30;;;;;;;;;;4992083;28;20104;-58
2023/09/19 04:19:14;;;;;;;19.02;11.43;;;;;;;;;;4992613;28;20063;-58
2023/09/19 04:21:48;;;;;;;21.35;12.98;;;;;;;;;;4986416;28;20133;-59
2023/09/19 04:24:42;;;;;;;21.42;10.93;;;;;;;;;;4989084;28;20065;-58
2023/09/19 04:27:36;;;;;;;24.25;9.80;;;;;;;;;;4994604;28;20777;-58
2023/09/19 04:30:23;;;;;;;13.90;8.85;;;;;;;;;;4977211;28;20065;-59
2023/09/19 04:33:17;;;;;;;19.17;9.82;;;;;;;;;;4995633;28;20062;-64
2023/09/19 04:36:07;;;;;;;16.23;8.40;;;;;;;;;;4994508;28;20061;-53
2023/09/19 04:39:04;;;;;;;16.90;8.13;;;;;;;;;;4995519;28;20061;-53
2023/09/19 04:41:56;;;;;;;17.35;6.10;;;;;;;;;;4993910;28;20056;-52
2023/09/19 04:44:31;;;;;;;15.25;5.82;;;;;;;;;;4996961;28;20061;-51
2023/09/19 04:47:18;;;;;;;21.77;5.85;;;;;;;;;;4997083;28;20053;-52
2023/09/19 04:50:13;;;;;;;19.60;5.57;;;;;;;;;;4996138;28;20054;-61
2023/09/19 04:53:00;;;;;;;16.00;5.40;;;;;;;;;;4986974;28;20061;-60
2023/09/19 04:55:55;;;;;;;16.45;6.13;;;;;;;;;;4997331;28;22268;-59
2023/09/19 04:58:47;;;;;;;17.02;6.20;;;;;;;;;;4991553;28;20061;-59
2023/09/19 05:01:41;;;;;;;14.52;5.68;;;;;;;;;;5003165;28;20784;-59
2023/09/19 05:04:28;;;;;;;20.00;5.60;;;;;;;;;;5003385;28;20054;-59
2023/09/19 05:07:25;;;;;;;20.80;5.25;;;;;;;;;;5002074;28;20417;-59
2023/09/19 05:10:10;;;;;;;15.52;5.60;;;;;;;;;;4991300;28;20741;-60
2023/09/19 05:13:04;;;;;;;19.30;5.22;;;;;;;;;;5001865;28;20775;-65
2023/09/19 05:15:52;;;;;;;15.97;4.93;;;;;;;;;;5004068;28;20115;-65
2023/09/19 05:18:59;;;;;;;20.73;4.97;;;;;;;;;;4994077;28;20514;-65
2023/09/19 05:21:54;;;;;;;15.43;4.88;;;;;;;;;;4984348;28;20045;-65
2023/09/19 05:24:48;;;;;;;13.02;4.82;;;;;;;;;;4981738;28;20094;-65
2023/09/19 05:27:35;;;;;;;17.92;5.72;;;;;;;;;;4983974;28;20089;-60
2023/09/19 05:30:29;;;;;;;18.08;5.65;;;;;;;;;;4985214;28;20121;-63
2023/09/19 05:33:18;;;;;;;16.88;5.60;;;;;;;;;;4985611;28;20060;-65
2023/09/19 05:36:11;;;;;;;19.63;5.18;;;;;;;;;;4981015;28;20113;-64
2023/09/19 05:38:57;;;;;;;15.70;4.18;;;;;;;;;;4978800;28;20062;-65
2023/09/19 05:41:51;;;;;;;14.13;4.00;;;;;;;;;;4985468;28;20054;-65
2023/09/19 05:44:38;;;;;;;11.60;3.58;;;;;;;;;;4981116;28;20062;-60
2023/09/19 05:47:32;;;;;;;16.25;3.65;;;;;;;;;;4980410;28;20146;-59
2023/09/19 05:50:20;;;;;;;13.20;3.40;;;;;;;;;;4977325;28;20057;-60
2023/09/19 05:53:14;;;;;;;16.08;3.28;;;;;;;;;;4986288;28;20058;-60
2023/09/19 05:56:01;;;;;;;10.65;3.10;;;;;;;;;;4983890;28;20113;-62
2023/09/19 05:58:55;;;;;;;8.18;3.03;;;;;;;;;;4978765;28;20057;-60
2023/09/19 06:01:46;;;;;;;11.57;2.90;;;;;;;;;;4980879;28;20803;-60
2023/09/19 06:04:40;;;;;;;10.77;2.90;;;;;;;;;;4979204;28;20051;-60
2023/09/19 06:07:35;;;;;;;9.98;2.95;;;;;;;;;;4982752;28;20055;-60
2023/09/19 06:10:22;;;;;;;10.68;2.90;;;;;;;;;;4983129;28;20341;-60
2023/09/19 06:13:10;;;;;;;10.07;2.30;;;;;;;;;;4983056;28;20050;-65
2023/09/19 06:16:05;;;;;;;11.02;2.33;;;;;;;;;;4984545;28;20117;-66
2023/09/19 06:18:56;;;;;;;16.83;2.50;;;;;;;;;;4989875;28;20057;-65
2023/09/19 06:21:50;;;;;;;10.95;2.70;;;;;;;;;;5002170;28;20128;-65
2023/09/19 06:24:37;;;;;;;6.15;2.38;;;;;;;;;;5000370;28;20061;-62
2023/09/19 06:27:36;;;;;;;12.65;2.95;;;;;;;;;;5000543;28;20045;-65
2023/09/19 06:30:26;;;;;;;11.30;2.40;;;;;;;;;;4998286;28;20054;-66
2023/09/19 06:33:21;;;;;;;17.27;3.10;;;;;;;;;;5005170;28;20108;-66
2023/09/19 06:36:07;;;;;;;15.47;2.57;;;;;;;;;;4999412;28;20445;-66
2023/09/19 06:39:04;;;;;;;10.00;2.30;;;;;;;;;;4998421;28;20115;-66
2023/09/19 06:41:49;;;;;;;9.18;2.50;;;;;;;;;;5001768;28;20062;-49
2023/09/19 06:44:43;;;;;;;7.18;1.48;;;;;;;;;;5001435;28;20096;-52
2023/09/19 06:47:37;;;;;;;10.98;1.92;;;;;;;;;;4987612;28;22756;-52
2023/09/19 06:50:32;;;;;;;8.23;1.90;;;;;;;;;;5004545;28;20058;-49
2023/09/19 06:53:18;;;;;;;11.23;1.73;;;;;;;;;;5002389;28;20050;-65
2023/09/19 06:56:12;;;;;;;9.07;2.03;;;;;;;;;;4997524;28;20124;-61
2023/09/19 06:58:59;;;;;;;11.43;2.22;;;;;;;;;;5004438;28;20054;-61
2023/09/19 07:01:53;;;;;;;5.68;2.00;;;;;;;;;;5003583;28;20042;-61
2023/09/19 07:04:40;;;;;;;9.27;2.15;;;;;;;;;;5003054;28;20057;-61
2023/09/19 07:07:34;;;;;;;10.80;2.50;;;;;;;;;;5006430;28;20417;-61
2023/09/19 07:10:23;;;;;;;10.63;1.88;;;;;;;;;;5007634;28;20513;-61
2023/09/19 07:13:19;;;;;;;8.07;2.03;;;;;;;;;;5000713;28;20046;-61
2023/09/19 07:16:08;;;;;;;12.48;2.30;;;;;;;;;;5005691;28;20054;-62
2023/09/19 07:19:06;;;;;;;11.98;2.58;;;;;;;;;;5000382;28;20518;-61
2023/09/19 07:21:54;;;;;;;10.93;2.40;;;;;;;;;;5004487;28;20058;-61
2023/09/19 07:24:48;;;;;;;15.73;2.25;;;;;;;;;;4998427;28;20053;-61
2023/09/19 07:27:35;;;;;;;9.73;2.58;;;;;;;;;;5004283;28;20108;-61
2023/09/19 07:30:29;;;;;;;11.93;2.45;;;;;;;;;;4999722;28;20060;-60
2023/09/19 07:33:16;;;;;;;14.35;2.70;;;;;;;;;;5004409;28;20136;-59
2023/09/19 07:36:14;;;;;;;11.40;3.00;;;;;;;;;;5004160;28;20061;-60
2023/09/19 07:39:00;;;;;;;10.40;2.33;;;;;;;;;;5002149;28;20108;-60
2023/09/19 07:41:54;;;;;;;11.48;2.85;;;;;;;;;;5004716;28;20637;-62
2023/09/19 07:44:40;;;;;;;16.42;2.53;;;;;;;;;;5007367;28;20125;-61
2023/09/19 07:47:36;;;;;;;10.95;2.28;;;;;;;;;;5002871;28;20050;-62
2023/09/19 07:50:21;;;;;;;9.95;2.90;;;;;;;;;;5001878;28;20580;-62
2023/09/19 07:53:17;;;;;;;11.77;2.95;;;;;;;;;;4999265;28;20057;-62
2023/09/19 07:56:06;;;;;;;21.58;2.85;;;;;;;;;;5005092;28;20191;-63
2023/09/19 07:59:00;;;;;;;12.50;2.60;;;;;;;;;;5000356;28;20054;-64
2023/09/19 08:01:48;;;;;;;14.60;3.13;;;;;;;;;;5004736;28;20050;-63
2023/09/19 08:04:45;;;;;;;17.00;3.00;;;;;;;;;;5003428;28;20140;-64
2023/09/19 08:07:40;;;;;;;12.45;2.85;;;;;;;;;;5004664;28;20064;-62
2023/09/19 08:10:35;;;;;;;9.05;2.70;;;;;;;;;;5001647;28;20575;-62
2023/09/19 08:13:30;;;;;;;12.23;2.65;;;;;;;;;;5005520;28;20054;-61
2023/09/19 08:16:17;;;;;;;12.25;2.50;;;;;;;;;;5004880;28;20831;-62
2023/09/19 08:19:18;;;;;;;11.70;2.72;;;;;;;;;;5002876;28;20053;-61
2023/09/19 08:22:05;;;;;;;12.63;2.80;;;;;;;;;;5005228;28;20654;-62
2023/09/19 08:24:59;;;;;;;16.52;3.10;;;;;;;;;;5004378;28;20054;-53
2023/09/19 08:27:48;;;;;;;14.10;2.83;;;;;;;;;;5006414;28;20057;-48
2023/09/19 08:30:41;;;;;;;11.52;2.35;;;;;;;;;;5005356;28;20648;-53
2023/09/19 08:33:28;;;;;;;12.32;2.60;;;;;;;;;;5003749;28;20049;-49
2023/09/19 08:36:22;;;;;;;18.70;3.25;;;;;;;;;;5006726;28;20105;-64
2023/09/19 08:39:11;;;;;;;9.27;2.55;;;;;;;;;;5002363;28;20081;-60
2023/09/19 08:42:04;;;;;;;19.08;3.10;;;;;;;;;;5003857;28;20050;-61
2023/09/19 08:44:50;;;;;;;7.72;2.78;;;;;;;;;;5003388;28;20119;-60
2023/09/19 08:47:47;;;;;;;13.43;2.78;;;;;;;;;;4995830;28;20053;-61
2023/09/19 08:50:37;;;;;;;12.18;2.97;;;;;;;;;;5002837;28;20062;-61
2023/09/19 08:53:37;;;;;;;12.82;3.00;;;;;;;;;;4999645;28;20506;-61
2023/09/19 08:56:26;;;;;;;10.57;3.08;;;;;;;;;;4999644;28;20132;-62
2023/09/19 08:59:24;;;;;;;13.52;2.70;;;;;;;;;;4999714;28;20064;-60
2023/09/19 09:02:19;;;;;;;8.40;2.13;;;;;;;;;;4999410;28;20054;-61
2023/09/19 09:05:15;;;;;;;11.38;2.25;;;;;;;;;;5002714;28;20073;-47
2023/09/19 09:08:07;;;;;;;11.60;2.55;;;;;;;;;;5002459;28;20521;-61
2023/09/19 09:10:55;;;;;;;12.20;2.33;;;;;;;;;;4999945;28;20062;-61
2023/09/19 09:13:49;;;;;;;9.80;2.22;;;;;;;;;;5004789;28;20397;-61
2023/09/19 09:16:36;;;;;;;13.48;1.95;;;;;;;;;;5000836;28;20938;-60
2023/09/19 09:19:36;;;;;;;11.88;3.35;;;;;;;;;;5005193;28;20057;-60
2023/09/19 09:22:24;;;;;;;16.88;3.10;;;;;;;;;;5003732;28;20050;-61
2023/09/19 09:25:18;;;;;;;12.48;2.70;;;;;;;;;;5003040;28;20564;-62
2023/09/19 09:28:06;;;;;;;10.48;3.03;;;;;;;;;;5002958;28;20051;-62
2023/09/19 09:30:59;;;;;;;12.00;2.58;;;;;;;;;;5001090;28;20057;-61
2023/09/19 09:33:54;;;;;;;14.68;3.20;;;;;;;;;;5000429;28;20502;-61
2023/09/19 09:36:49;;;;;;;12.13;2.88;;;;;;;;;;5001192;28;20127;-58
2023/09/19 09:39:36;;;;;;;16.30;3.00;;;;;;;;;;4999667;28;20119;-59
2023/09/19 09:42:33;;;;;;;17.85;3.13;;;;;;;;;;4999124;28;20064;-59
2023/09/19 09:48:15;;;;;;;12.65;3.17;;;;;;;;;;5002393;28;20123;-59
2023/09/19 09:51:03;;;;;;;9.18;2.45;;;;;;;;;;5002986;28;20735;-53
2023/09/19 09:54:12;;;;;;;9.93;2.60;;;;;;;;;;5002451;28;20088;-53
2023/09/19 09:57:16;;;;;;;12.10;3.15;;;;;;;;;;4997645;28;20046;-53
2023/09/19 10:02:46;;;;;;;11.68;2.63;;;;;;;;;;4993885;28;20136;-59
2023/09/19 10:05:40;;;;;;;11.57;3.05;;;;;;;;;;4999931;28;20609;-65
2023/09/19 10:08:31;;;;;;;9.25;2.80;;;;;;;;;;5002867;28;20054;-66
2023/09/19 10:11:19;;;;;;;11.27;2.38;;;;;;;;;;5002146;28;20124;-65
2023/09/19 10:14:12;;;;;;;8.85;2.42;;;;;;;;;;5002255;28;20050;-64
2023/09/19 10:17:04;;;;;;;15.88;2.72;;;;;;;;;;4986293;28;20058;-63
2023/09/19 10:20:18;;;;;;;13.82;2.75;;;;;;;;;;5002116;28;20049;-46
2023/09/19 10:23:00;;;;;;;8.18;2.05;;;;;;;;;;5002434;28;20533;-49
2023/09/19 10:25:54;;;;;;;10.05;2.10;;;;;;;;;;5002625;28;20846;-50
2023/09/19 10:28:50;;;;;;;5.60;2.05;;;;;;;;;;5003552;28;20073;-50
2023/09/19 10:31:40;;;;;;;6.07;2.13;;;;;;;;;;5004231;28;20065;-61
2023/09/19 10:34:36;;;;;;;5.57;1.90;;;;;;;;;;5009297;28;20054;-57
2023/09/19 10:37:25;;;;;;;6.53;2.05;;;;;;;;;;4996643;28;20054;-57
2023/09/19 10:40:18;;;;;;;7.25;2.08;;;;;;;;;;5007702;28;20058;-57
2023/09/19 10:43:13;;;;;;;8.70;2.45;;;;;;;;;;4994928;28;20714;-57
2023/09/19 10:46:12;;;;;;;9.73;2.53;;;;;;;;;;4985110;28;20735;-57
2023/09/19 10:49:06;;;;;;;8.07;2.20;;;;;;;;;;4983510;28;20518;-57
2023/09/19 10:51:58;;;;;;;6.85;2.38;;;;;;;;;;4992442;28;20057;-58
2023/09/19 10:54:54;;;;;;;7.90;2.00;;;;;;;;;;5003356;28;20055;-57
2023/09/19 10:57:44;;;;;;;7.78;1.90;;;;;;;;;;4994625;28;20064;-51
2023/09/19 11:00:55;;;;;;;7.07;2.17;;;;;;;;;;4999637;28;20144;-50
2023/09/19 11:03:45;;;;;;;3.30;1.77;;;;;;;;;;5002330;28;20113;-57
2023/09/19 11:06:41;;;;;;;10.20;2.53;;;;;;;;;;5002160;28;20406;-57
2023/09/19 11:09:43;;;;;;;6.78;1.48;;;;;;;;;;5001879;28;20064;-58
2023/09/19 11:12:40;;;;;;;10.90;2.08;;;;;;;;;;4984197;28;20058;-58
2023/09/19 11:16:00;;;;;;;5.75;1.63;;;;;;;;;;4988740;28;20399;-58
2023/09/19 11:19:01;;;;;;;15.38;1.90;;;;;;;;;;4938868;28;20063;-60
2023/09/19 11:21:54;;;;;;;7.15;1.77;;;;;;;;;;4989933;28;20054;-60
2023/09/19 11:24:51;;;;;;;8.23;1.50;;;;;;;;;;4995345;28;20108;-60
2023/09/19 11:27:35;;;;;;;6.88;1.73;;;;;;;;;;4994762;28;20073;-52
2023/09/19 11:30:32;;;;;;;6.03;1.67;;;;;;;;;;5002024;28;20058;-60
2023/09/19 11:33:38;;;;;;;9.55;2.17;;;;;;;;;;5001403;28;20251;-60
2023/09/19 11:36:36;;;;;;;8.27;2.03;;;;;;;;;;4997087;28;20470;-61
2023/09/19 11:39:29;;;;;;;6.60;1.98;;;;;;;;;;4991236;28;20060;-65
2023/09/19 11:42:35;;;;;;;3.78;1.73;;;;;;;;;;4999709;28;20062;-65
2023/09/19 11:45:46;;;;;;;6.63;1.98;;;;;;;;;;4998892;28;20059;-58
2023/09/19 11:48:30;;;;;;;6.70;1.60;;;;;;;;;;4999477;28;20053;-58
2023/09/19 11:51:27;;;;;;;4.88;1.63;;;;;;;;;;5002678;28;20073;-58
2023/09/19 11:54:18;;;;;;;5.72;1.80;;;;;;;;;;5001533;28;20061;-65
2023/09/19 11:57:10;;;;;;;7.57;1.65;;;;;;;;;;5001797;28;20050;-58
2023/09/19 11:59:58;;;;;;;5.65;1.60;;;;;;;;;;5002324;28;20054;-62
2023/09/19 12:02:54;;;;;;;5.38;1.50;;;;;;;;;;5003080;28;20054;-61
2023/09/19 12:05:42;;;;;;;4.72;1.50;;;;;;;;;;5003959;28;20057;-61
2023/09/19 12:08:36;;;;;;;5.18;1.80;;;;;;;;;;4993957;28;20522;-61
2023/09/19 12:11:24;;;;;;;6.35;1.85;;;;;;;;;;4999739;28;20671;-61
2023/09/19 12:14:25;;;;;;;5.40;1.85;;;;;;;;;;4987933;28;20161;-60
2023/09/19 12:17:26;;;;;;;7.68;1.80;;;;;;;;;;4992089;28;20045;-60
2023/09/19 12:20:46;;;;;;;7.90;2.30;;;;;;;;;;4999100;28;20120;-60
2023/09/19 12:23:29;;;;;;;15.32;2.47;;;;;;;;;;4997384;28;20054;-59
2023/09/19 12:26:24;;;;;;;13.48;2.05;;;;;;;;;;4997753;28;20045;-61
2023/09/19 12:29:14;;;;;;;10.90;2.17;;;;;;;;;;5000956;28;20149;-62
2023/09/19 12:32:08;;;;;;;18.65;2.20;;;;;;;;;;4998788;28;20057;-63
2023/09/19 12:35:07;;;;;;;10.45;1.80;;;;;;;;;;5004150;28;20053;-61
2023/09/19 12:37:55;;;;;;;16.35;2.20;;;;;;;;;;4997515;28;20477;-61
2023/09/19 12:40:51;;;;;;;9.55;2.20;;;;;;;;;;4986610;28;20069;-61
2023/09/19 12:43:37;;;;;;;8.53;2.20;;;;;;;;;;4986516;28;20116;-59
2023/09/19 12:46:32;;;;;;;11.98;1.90;;;;;;;;;;4999116;28;20332;-59
2023/09/19 12:49:20;;;;;;;12.05;2.63;;;;;;;;;;4999019;28;20497;-59
2023/09/19 12:52:13;;;;;;;12.40;2.78;;;;;;;;;;4999462;28;20053;-49
2023/09/19 12:55:08;;;;;;;16.75;2.42;;;;;;;;;;5001859;28;20057;-64
2023/09/19 12:58:07;;;;;;;9.63;1.90;;;;;;;;;;4998102;28;20525;-64
2023/09/19 13:01:05;;;;;;;14.68;2.28;;;;;;;;;;5000574;28;20486;-64
2023/09/19 13:04:08;;;;;;;7.45;2.22;;;;;;;;;;4999725;28;20057;-64
2023/09/19 13:07:02;;;;;;;11.85;2.85;;;;;;;;;;4995384;28;20108;-63
2023/09/19 13:10:07;;;;;;;10.52;2.00;;;;;;;;;;4996409;28;20054;-53
2023/09/19 13:13:19;;;;;;;11.38;2.53;;;;;;;;;;4998880;28;20581;-51
2023/09/19 13:16:21;;;;;;;10.20;2.40;;;;;;;;;;4989545;28;20053;-52
2023/09/19 13:19:21;;;;;;;6.90;1.90;;;;;;;;;;4990040;28;20157;-51
2023/09/19 13:22:33;;;;;;;9.40;2.17;;;;;;;;;;4982840;28;20426;-62
2023/09/19 13:25:29;;;;;;;11.02;2.35;;;;;;;;;;4980518;28;20502;-59
2023/09/19 13:28:22;;;;;;;8.77;2.03;;;;;;;;;;4981225;28;20514;-59
2023/09/19 13:31:11;;;;;;;11.88;1.67;;;;;;;;;;4982067;28;20430;-60
2023/09/19 13:34:04;;;;;;;12.00;2.53;;;;;;;;;;4976788;28;20680;-59
2023/09/19 13:36:51;;;;;;;13.52;2.80;;;;;;;;;;4981622;28;20502;-59
2023/09/19 13:39:47;;;;;;;11.98;2.67;;;;;;;;;;4982707;28;20065;-62
2023/09/19 13:42:32;;;;;;;13.77;2.30;;;;;;;;;;4981936;28;20058;-61
2023/09/19 13:45:30;;;;;;;12.25;2.47;;;;;;;;;;4981670;28;20062;-61
2023/09/19 13:48:13;;;;;;;16.90;3.13;;;;;;;;;;4984772;28;20061;-59
2023/09/19 13:51:07;;;;;;;11.50;2.30;;;;;;;;;;4983103;28;20528;-59
2023/09/19 13:53:54;;;;;;;10.52;2.03;;;;;;;;;;4976798;28;20053;-50
2023/09/19 13:56:48;;;;;;;8.98;2.40;;;;;;;;;;4984595;28;20050;-51
2023/09/19 13:59:37;;;;;;;9.15;2.33;;;;;;;;;;4979043;28;20058;-52
2023/09/19 14:02:27;;;;;;;9.50;2.42;;;;;;;;;;4979093;28;20173;-48
2023/09/19 14:04:55;;;;;;;7.40;2.25;;;;;;;;;;4979942;28;20050;-53
2023/09/19 14:07:22;;;;;;;9.20;2.38;;;;;;;;;;4979432;28;20135;-51
2023/09/19 14:10:16;;;;;;;10.25;2.00;;;;;;;;;;4983274;28;20117;-50
2023/09/19 14:13:04;;;;;;;9.65;2.10;;;;;;;;;;4978505;28;20057;-50
2023/09/19 14:15:38;;;;;;;8.50;2.33;;;;;;;;;;4985374;28;20058;-54
2023/09/19 14:18:05;;;;;;;8.82;2.22;;;;;;;;;;4974698;28;20526;-50
2023/09/19 14:20:33;;;;;;;6.97;1.98;;;;;;;;;;4989893;28;20507;-51
2023/09/19 14:23:07;;;;;;;14.63;2.67;;;;;;;;;;5003695;28;20057;-48
2023/09/19 14:25:36;;;;;;;8.20;2.25;;;;;;;;;;4991116;28;20054;-59
2023/09/19 14:28:30;;;;;;;8.20;1.80;;;;;;;;;;5003248;28;20104;-59
2023/09/19 14:31:17;;;;;;;4.95;1.75;;;;;;;;;;5001852;28;20049;-59
2023/09/19 14:34:11;;;;;;;11.18;1.90;;;;;;;;;;5001853;28;20050;-59
2023/09/19 14:36:59;;;;;;;9.25;2.38;;;;;;;;;;5000841;28;20053;-58
2023/09/19 14:39:53;;;;;;;10.48;2.60;;;;;;;;;;4997813;28;20151;-59
2023/09/19 14:42:40;;;;;;;7.88;1.65;;;;;;;;;;4998669;28;20116;-59
2023/09/19 14:45:38;;;;;;;12.57;2.20;;;;;;;;;;4998998;28;20054;-58
2023/09/19 14:48:26;;;;;;;8.35;2.22;;;;;;;;;;4997842;28;20049;-60
2023/09/19 14:51:20;;;;;;;8.30;2.50;;;;;;;;;;4996280;28;20061;-60
2023/09/19 14:54:08;;;;;;;14.95;2.42;;;;;;;;;;4992781;28;20116;-60
2023/09/19 14:57:04;;;;;;;12.88;2.30;;;;;;;;;;5000668;28;20058;-60
2023/09/19 14:59:51;;;;;;;9.95;2.10;;;;;;;;;;5001867;28;20766;-60
2023/09/19 15:02:48;;;;;;;10.10;2.20;;;;;;;;;;4993276;28;20416;-54
2023/09/19 15:05:34;;;;;;;15.98;2.42;;;;;;;;;;4998144;28;20137;-51
2023/09/19 15:08:26;;;;;;;7.63;2.10;;;;;;;;;;4997191;28;20809;-52
2023/09/19 15:11:16;;;;;;;12.60;2.33;;;;;;;;;;4998928;28;20120;-47
2023/09/19 15:14:08;;;;;;;7.05;1.95;;;;;;;;;;5004662;28;20340;-62
2023/09/19 15:16:55;;;;;;;8.27;2.10;;;;;;;;;;5004589;28;20080;-58
2023/09/19 15:19:57;;;;;;;7.28;2.53;;;;;;;;;;5003859;28;20145;-56
2023/09/19 15:22:44;;;;;;;11.90;2.65;;;;;;;;;;4999623;28;20053;-56
2023/09/19 15:25:40;;;;;;;12.85;2.38;;;;;;;;;;4999711;28;20077;-56
2023/09/19 15:28:34;;;;;;;8.25;2.33;;;;;;;;;;5001078;28;20050;-58
2023/09/19 15:31:20;;;;;;;8.82;2.30;;;;;;;;;;4996250;28;20065;-49
2023/09/19 15:34:15;;;;;;;7.82;2.10;;;;;;;;;;4998498;28;20056;-52
2023/09/19 15:37:02;;;;;;;9.05;2.03;;;;;;;;;;4995095;28;20148;-47
2023/09/19 15:39:55;;;;;;;9.85;2.20;;;;;;;;;;4999135;28;20061;-49
2023/09/19 15:42:43;;;;;;;11.23;2.15;;;;;;;;;;4998910;28;20645;-49
2023/09/19 15:45:36;;;;;;;18.30;3.10;;;;;;;;;;5004494;28;20472;-62
2023/09/19 15:48:23;;;;;;;16.98;2.70;;;;;;;;;;4999874;28;21033;-62
2023/09/19 15:51:17;;;;;;;9.63;2.42;;;;;;;;;;4997078;28;20058;-62
2023/09/19 15:54:09;;;;;;;13.02;2.60;;;;;;;;;;4997912;28;20536;-62
2023/09/19 15:57:03;;;;;;;14.95;2.75;;;;;;;;;;4991107;28;20062;-62
2023/09/19 15:59:50;;;;;;;12.90;2.40;;;;;;;;;;4984302;28;20108;-53
2023/09/19 16:02:47;;;;;;;11.10;2.30;;;;;;;;;;5000572;28;20046;-48
2023/09/19 16:05:15;;;;;;;15.70;2.85;;;;;;;;;;5000433;28;20301;-53
2023/09/19 16:07:43;;;;;;;10.98;2.65;;;;;;;;;;4994814;28;20097;-50
2023/09/19 16:10:17;;;;;;;12.10;2.13;;;;;;;;;;4991991;28;20527;-60
2023/09/19 16:12:44;;;;;;;11.85;2.75;;;;;;;;;;4989896;28;20085;-48
2023/09/19 16:15:18;;;;;;;13.35;2.53;;;;;;;;;;4984349;28;20193;-46
2023/09/19 16:17:48;;;;;;;8.98;2.53;;;;;;;;;;4993941;28;20069;-50
2023/09/19 16:20:16;;;;;;;16.70;3.08;;;;;;;;;;4994766;28;20060;-54
2023/09/19 16:22:50;;;;;;;9.82;2.47;;;;;;;;;;4999056;28;20112;-51
2023/09/19 16:25:18;;;;;;;11.68;2.70;;;;;;;;;;4991727;28;20066;-50
2023/09/19 16:28:12;;;;;;;12.63;2.85;;;;;;;;;;4995101;28;20053;-53
2023/09/19 16:31:04;;;;;;;15.30;3.47;;;;;;;;;;4993589;28;20069;-63
2023/09/19 16:34:01;;;;;;;15.13;2.78;;;;;;;;;;4999777;28;20062;-63
2023/09/19 16:36:48;;;;;;;9.75;2.67;;;;;;;;;;5003828;28;20064;-64
2023/09/19 16:39:43;;;;;;;15.77;2.90;;;;;;;;;;5001528;28;20456;-63
2023/09/19 16:42:30;;;;;;;8.35;2.60;;;;;;;;;;4997695;28;20054;-62
2023/09/19 16:45:23;;;;;;;26.08;3.42;;;;;;;;;;4997956;28;20053;-62
2023/09/19 16:47:51;;;;;;;16.00;3.20;;;;;;;;;;4997506;28;20497;-58
2023/09/19 16:50:45;;;;;;;17.02;3.03;;;;;;;;;;5001059;28;20049;-52
2023/09/19 16:53:32;;;;;;;18.90;3.35;;;;;;;;;;4993800;28;20152;-49
2023/09/19 16:56:27;;;;;;;18.85;3.15;;;;;;;;;;4999170;28;20061;-50